sensor_id;sensor_type;location;lat;lon;timestamp;P1;durP1;ratioP1;P2;durP2;ratioP2
19951;SDS011;10137;49.406;19.484;2024-02-23T00:00:48;4.17;;;2.77;;
19951;SDS011;10137;49.406;19.484;2024-02-23T00:03:14;2.73;;;2.33;;
19951;SDS011;10137;49.406;19.484;2024-02-23T00:05:41;3.43;;;2.80;;
19951;SDS011;10137;49.406;19.484;2024-02-23T00:08:08;4.87;;;2.90;;
19951;SDS011;10137;49.406;19.484;2024-02-23T00:10:36;3.87;;;2.60;;
19951;SDS011;10137;49.406;19.484;2024-02-23T00:13:03;4.60;;;3.07;;
19951;SDS011;10137;49.406;19.484;2024-02-23T00:15:30;4.13;;;3.13;;
19951;SDS011;10137;49.406;19.484;2024-02-23T00:17:57;5.13;;;3.00;;
19951;SDS011;10137;49.406;19.484;2024-02-23T00:20:24;3.30;;;2.80;;
19951;SDS011;10137;49.406;19.484;2024-02-23T00:22:51;4.37;;;2.87;;
19951;SDS011;10137;49.406;19.484;2024-02-23T00:25:18;3.67;;;2.67;;
19951;SDS011;10137;49.406;19.484;2024-02-23T00:27:46;6.17;;;3.53;;
19951;SDS011;10137;49.406;19.484;2024-02-23T00:30:13;6.83;;;3.43;;
19951;SDS011;10137;49.406;19.484;2024-02-23T00:32:41;5.90;;;2.90;;
19951;SDS011;10137;49.406;19.484;2024-02-23T00:35:07;4.13;;;2.93;;
19951;SDS011;10137;49.406;19.484;2024-02-23T00:37:34;3.67;;;2.60;;
19951;SDS011;10137;49.406;19.484;2024-02-23T00:40:01;5.13;;;3.00;;
19951;SDS011;10137;49.406;19.484;2024-02-23T00:42:29;3.23;;;2.83;;
19951;SDS011;10137;49.406;19.484;2024-02-23T00:44:57;2.87;;;2.43;;
19951;SDS011;10137;49.406;19.484;2024-02-23T00:47:24;7.43;;;3.20;;
19951;SDS011;10137;49.406;19.484;2024-02-23T00:49:50;4.47;;;2.87;;
19951;SDS011;10137;49.406;19.484;2024-02-23T00:52:17;5.30;;;3.07;;
19951;SDS011;10137;49.406;19.484;2024-02-23T00:54:44;3.80;;;2.83;;
19951;SDS011;10137;49.406;19.484;2024-02-23T00:57:11;4.40;;;2.70;;
19951;SDS011;10137;49.406;19.484;2024-02-23T00:59:38;5.93;;;2.93;;
19951;SDS011;10137;49.406;19.484;2024-02-23T01:02:06;3.97;;;2.60;;
19951;SDS011;10137;49.406;19.484;2024-02-23T01:04:33;4.63;;;2.90;;
19951;SDS011;10137;49.406;19.484;2024-02-23T01:07:00;3.70;;;2.80;;
19951;SDS011;10137;49.406;19.484;2024-02-23T01:09:27;3.57;;;2.50;;
19951;SDS011;10137;49.406;19.484;2024-02-23T01:11:54;3.33;;;2.67;;
19951;SDS011;10137;49.406;19.484;2024-02-23T01:14:21;4.70;;;2.70;;
19951;SDS011;10137;49.406;19.484;2024-02-23T01:16:48;3.67;;;3.00;;
19951;SDS011;10137;49.406;19.484;2024-02-23T01:19:16;3.00;;;2.50;;
19951;SDS011;10137;49.406;19.484;2024-02-23T01:21:43;3.60;;;2.73;;
19951;SDS011;10137;49.406;19.484;2024-02-23T01:24:10;3.63;;;2.60;;
19951;SDS011;10137;49.406;19.484;2024-02-23T01:26:37;3.57;;;2.77;;
19951;SDS011;10137;49.406;19.484;2024-02-23T01:29:04;4.93;;;2.87;;
19951;SDS011;10137;49.406;19.484;2024-02-23T01:31:31;3.43;;;2.93;;
19951;SDS011;10137;49.406;19.484;2024-02-23T01:33:58;4.40;;;3.07;;
19951;SDS011;10137;49.406;19.484;2024-02-23T01:36:26;4.20;;;2.77;;
19951;SDS011;10137;49.406;19.484;2024-02-23T01:38:53;5.30;;;2.70;;
19951;SDS011;10137;49.406;19.484;2024-02-23T01:41:20;3.70;;;2.33;;
19951;SDS011;10137;49.406;19.484;2024-02-23T01:43:46;3.70;;;2.70;;
19951;SDS011;10137;49.406;19.484;2024-02-23T01:46:14;3.60;;;2.70;;
19951;SDS011;10137;49.406;19.484;2024-02-23T01:48:43;4.73;;;2.60;;
19951;SDS011;10137;49.406;19.484;2024-02-23T01:51:10;3.43;;;2.37;;
19951;SDS011;10137;49.406;19.484;2024-02-23T01:53:39;5.27;;;2.70;;
19951;SDS011;10137;49.406;19.484;2024-02-23T01:56:06;4.27;;;3.00;;
19951;SDS011;10137;49.406;19.484;2024-02-23T01:58:33;3.30;;;2.70;;
19951;SDS011;10137;49.406;19.484;2024-02-23T02:01:03;4.47;;;2.80;;
19951;SDS011;10137;49.406;19.484;2024-02-23T02:03:30;4.30;;;2.97;;
19951;SDS011;10137;49.406;19.484;2024-02-23T02:05:58;3.47;;;2.77;;
19951;SDS011;10137;49.406;19.484;2024-02-23T02:08:25;3.30;;;2.67;;
19951;SDS011;10137;49.406;19.484;2024-02-23T02:10:53;4.20;;;2.60;;
19951;SDS011;10137;49.406;19.484;2024-02-23T02:13:20;3.17;;;2.80;;
19951;SDS011;10137;49.406;19.484;2024-02-23T02:15:47;4.20;;;2.80;;
19951;SDS011;10137;49.406;19.484;2024-02-23T02:18:14;3.57;;;2.60;;
19951;SDS011;10137;49.406;19.484;2024-02-23T02:20:42;3.13;;;2.53;;
19951;SDS011;10137;49.406;19.484;2024-02-23T02:23:17;4.93;;;2.60;;
19951;SDS011;10137;49.406;19.484;2024-02-23T02:25:44;6.53;;;2.63;;
19951;SDS011;10137;49.406;19.484;2024-02-23T02:28:12;3.70;;;2.70;;
19951;SDS011;10137;49.406;19.484;2024-02-23T02:30:39;3.87;;;2.50;;
19951;SDS011;10137;49.406;19.484;2024-02-23T02:33:05;3.90;;;2.60;;
19951;SDS011;10137;49.406;19.484;2024-02-23T02:35:32;4.00;;;2.37;;
19951;SDS011;10137;49.406;19.484;2024-02-23T02:37:59;4.30;;;2.70;;
19951;SDS011;10137;49.406;19.484;2024-02-23T02:40:26;4.43;;;2.40;;
19951;SDS011;10137;49.406;19.484;2024-02-23T02:42:53;3.90;;;2.30;;
19951;SDS011;10137;49.406;19.484;2024-02-23T02:45:21;2.77;;;2.17;;
19951;SDS011;10137;49.406;19.484;2024-02-23T02:47:48;2.73;;;2.03;;
19951;SDS011;10137;49.406;19.484;2024-02-23T02:50:15;2.43;;;1.90;;
19951;SDS011;10137;49.406;19.484;2024-02-23T02:52:42;3.40;;;2.23;;
19951;SDS011;10137;49.406;19.484;2024-02-23T02:55:09;2.87;;;2.07;;
19951;SDS011;10137;49.406;19.484;2024-02-23T02:57:36;2.33;;;2.00;;
19951;SDS011;10137;49.406;19.484;2024-02-23T03:00:03;3.07;;;1.80;;
19951;SDS011;10137;49.406;19.484;2024-02-23T03:02:32;2.23;;;1.87;;
19951;SDS011;10137;49.406;19.484;2024-02-23T03:04:59;3.10;;;2.30;;
19951;SDS011;10137;49.406;19.484;2024-02-23T03:07:26;2.60;;;1.80;;
19951;SDS011;10137;49.406;19.484;2024-02-23T03:09:52;2.57;;;1.87;;
19951;SDS011;10137;49.406;19.484;2024-02-23T03:12:20;2.07;;;1.70;;
19951;SDS011;10137;49.406;19.484;2024-02-23T03:14:47;2.70;;;1.80;;
19951;SDS011;10137;49.406;19.484;2024-02-23T03:17:14;3.03;;;1.77;;
19951;SDS011;10137;49.406;19.484;2024-02-23T03:19:43;2.00;;;1.80;;
19951;SDS011;10137;49.406;19.484;2024-02-23T03:22:10;2.17;;;1.60;;
19951;SDS011;10137;49.406;19.484;2024-02-23T03:24:37;3.17;;;1.80;;
19951;SDS011;10137;49.406;19.484;2024-02-23T03:27:03;2.33;;;1.80;;
19951;SDS011;10137;49.406;19.484;2024-02-23T03:29:30;1.90;;;1.67;;
19951;SDS011;10137;49.406;19.484;2024-02-23T03:31:57;2.20;;;1.93;;
19951;SDS011;10137;49.406;19.484;2024-02-23T03:34:26;4.70;;;1.90;;
19951;SDS011;10137;49.406;19.484;2024-02-23T03:36:54;2.57;;;1.90;;
19951;SDS011;10137;49.406;19.484;2024-02-23T03:39:21;1.93;;;1.40;;
19951;SDS011;10137;49.406;19.484;2024-02-23T03:41:48;3.43;;;1.60;;
19951;SDS011;10137;49.406;19.484;2024-02-23T03:44:15;1.50;;;1.40;;
19951;SDS011;10137;49.406;19.484;2024-02-23T03:46:42;2.30;;;2.00;;
19951;SDS011;10137;49.406;19.484;2024-02-23T03:49:08;2.00;;;1.80;;
19951;SDS011;10137;49.406;19.484;2024-02-23T03:51:37;3.03;;;1.50;;
19951;SDS011;10137;49.406;19.484;2024-02-23T03:54:06;2.03;;;1.70;;
19951;SDS011;10137;49.406;19.484;2024-02-23T03:56:37;1.83;;;1.50;;
19951;SDS011;10137;49.406;19.484;2024-02-23T03:59:05;1.67;;;1.40;;
19951;SDS011;10137;49.406;19.484;2024-02-23T04:01:34;1.50;;;1.40;;
19951;SDS011;10137;49.406;19.484;2024-02-23T04:04:02;1.97;;;1.77;;
19951;SDS011;10137;49.406;19.484;2024-02-23T04:06:29;2.20;;;1.90;;
19951;SDS011;10137;49.406;19.484;2024-02-23T04:08:57;1.90;;;1.47;;
19951;SDS011;10137;49.406;19.484;2024-02-23T04:11:25;1.83;;;1.33;;
19951;SDS011;10137;49.406;19.484;2024-02-23T04:13:52;2.50;;;1.70;;
19951;SDS011;10137;49.406;19.484;2024-02-23T04:16:22;1.83;;;1.43;;
19951;SDS011;10137;49.406;19.484;2024-02-23T04:18:49;1.67;;;1.27;;
19951;SDS011;10137;49.406;19.484;2024-02-23T04:21:16;1.80;;;1.40;;
19951;SDS011;10137;49.406;19.484;2024-02-23T04:23:43;1.47;;;1.37;;
19951;SDS011;10137;49.406;19.484;2024-02-23T04:26:10;1.43;;;1.30;;
19951;SDS011;10137;49.406;19.484;2024-02-23T04:28:39;2.53;;;1.40;;
19951;SDS011;10137;49.406;19.484;2024-02-23T04:31:05;2.37;;;1.13;;
19951;SDS011;10137;49.406;19.484;2024-02-23T04:33:34;1.73;;;1.10;;
19951;SDS011;10137;49.406;19.484;2024-02-23T04:36:01;1.50;;;1.20;;
19951;SDS011;10137;49.406;19.484;2024-02-23T04:38:29;1.47;;;1.30;;
19951;SDS011;10137;49.406;19.484;2024-02-23T04:40:56;1.90;;;1.33;;
19951;SDS011;10137;49.406;19.484;2024-02-23T04:43:23;1.43;;;1.20;;
19951;SDS011;10137;49.406;19.484;2024-02-23T04:45:51;1.93;;;1.50;;
19951;SDS011;10137;49.406;19.484;2024-02-23T04:48:18;1.43;;;1.33;;
19951;SDS011;10137;49.406;19.484;2024-02-23T04:50:45;1.40;;;1.30;;
19951;SDS011;10137;49.406;19.484;2024-02-23T04:53:12;2.90;;;1.20;;
19951;SDS011;10137;49.406;19.484;2024-02-23T04:55:39;2.30;;;1.43;;
19951;SDS011;10137;49.406;19.484;2024-02-23T04:58:06;1.53;;;1.30;;
19951;SDS011;10137;49.406;19.484;2024-02-23T05:00:33;1.23;;;1.10;;
19951;SDS011;10137;49.406;19.484;2024-02-23T05:03:02;2.70;;;1.10;;
19951;SDS011;10137;49.406;19.484;2024-02-23T05:05:29;1.50;;;1.17;;
19951;SDS011;10137;49.406;19.484;2024-02-23T05:07:56;1.87;;;1.20;;
19951;SDS011;10137;49.406;19.484;2024-02-23T05:10:23;2.10;;;1.90;;
19951;SDS011;10137;49.406;19.484;2024-02-23T05:12:50;1.90;;;1.70;;
19951;SDS011;10137;49.406;19.484;2024-02-23T05:15:17;1.53;;;1.30;;
19951;SDS011;10137;49.406;19.484;2024-02-23T05:17:44;1.30;;;1.10;;
19951;SDS011;10137;49.406;19.484;2024-02-23T05:20:13;1.97;;;1.33;;
19951;SDS011;10137;49.406;19.484;2024-02-23T05:22:40;1.40;;;1.23;;
19951;SDS011;10137;49.406;19.484;2024-02-23T05:25:07;1.93;;;1.40;;
19951;SDS011;10137;49.406;19.484;2024-02-23T05:27:35;1.50;;;1.20;;
19951;SDS011;10137;49.406;19.484;2024-02-23T05:30:02;1.83;;;1.50;;
19951;SDS011;10137;49.406;19.484;2024-02-23T05:32:29;1.73;;;1.50;;
19951;SDS011;10137;49.406;19.484;2024-02-23T05:34:56;2.17;;;1.40;;
19951;SDS011;10137;49.406;19.484;2024-02-23T05:37:24;1.73;;;1.20;;
19951;SDS011;10137;49.406;19.484;2024-02-23T05:39:52;1.17;;;1.07;;
19951;SDS011;10137;49.406;19.484;2024-02-23T05:42:19;2.27;;;1.30;;
19951;SDS011;10137;49.406;19.484;2024-02-23T05:44:46;1.10;;;1.00;;
19951;SDS011;10137;49.406;19.484;2024-02-23T05:47:13;1.20;;;1.10;;
19951;SDS011;10137;49.406;19.484;2024-02-23T05:49:40;1.20;;;1.10;;
19951;SDS011;10137;49.406;19.484;2024-02-23T05:52:07;2.10;;;1.40;;
19951;SDS011;10137;49.406;19.484;2024-02-23T05:54:35;1.60;;;1.43;;
19951;SDS011;10137;49.406;19.484;2024-02-23T05:57:03;1.50;;;1.27;;
19951;SDS011;10137;49.406;19.484;2024-02-23T05:59:30;1.63;;;1.40;;
19951;SDS011;10137;49.406;19.484;2024-02-23T06:01:57;1.93;;;1.43;;
19951;SDS011;10137;49.406;19.484;2024-02-23T06:04:23;1.43;;;1.10;;
19951;SDS011;10137;49.406;19.484;2024-02-23T06:06:51;1.30;;;1.20;;
19951;SDS011;10137;49.406;19.484;2024-02-23T06:09:18;3.07;;;1.40;;
19951;SDS011;10137;49.406;19.484;2024-02-23T06:11:46;1.20;;;1.10;;
19951;SDS011;10137;49.406;19.484;2024-02-23T06:14:13;1.27;;;1.10;;
19951;SDS011;10137;49.406;19.484;2024-02-23T06:16:40;1.10;;;1.00;;
19951;SDS011;10137;49.406;19.484;2024-02-23T06:19:07;1.57;;;1.10;;
19951;SDS011;10137;49.406;19.484;2024-02-23T06:21:34;1.40;;;1.10;;
19951;SDS011;10137;49.406;19.484;2024-02-23T06:24:01;1.40;;;1.10;;
19951;SDS011;10137;49.406;19.484;2024-02-23T06:26:29;1.07;;;0.90;;
19951;SDS011;10137;49.406;19.484;2024-02-23T06:28:58;1.10;;;0.90;;
19951;SDS011;10137;49.406;19.484;2024-02-23T06:31:25;1.10;;;0.97;;
19951;SDS011;10137;49.406;19.484;2024-02-23T06:33:51;1.60;;;1.20;;
19951;SDS011;10137;49.406;19.484;2024-02-23T06:36:18;2.77;;;1.50;;
19951;SDS011;10137;49.406;19.484;2024-02-23T06:38:45;2.60;;;1.50;;
19951;SDS011;10137;49.406;19.484;2024-02-23T06:41:12;1.20;;;1.10;;
19951;SDS011;10137;49.406;19.484;2024-02-23T06:43:39;2.43;;;1.60;;
19951;SDS011;10137;49.406;19.484;2024-02-23T06:46:07;3.73;;;1.83;;
19951;SDS011;10137;49.406;19.484;2024-02-23T06:48:34;7.93;;;2.90;;
19951;SDS011;10137;49.406;19.484;2024-02-23T06:51:01;4.30;;;2.30;;
19951;SDS011;10137;49.406;19.484;2024-02-23T06:53:29;1.30;;;1.00;;
19951;SDS011;10137;49.406;19.484;2024-02-23T06:55:55;2.37;;;0.97;;
19951;SDS011;10137;49.406;19.484;2024-02-23T06:58:24;5.57;;;2.80;;
19951;SDS011;10137;49.406;19.484;2024-02-23T07:00:50;2.67;;;1.70;;
19951;SDS011;10137;49.406;19.484;2024-02-23T07:03:19;1.17;;;1.07;;
19951;SDS011;10137;49.406;19.484;2024-02-23T07:05:46;1.87;;;1.30;;
19951;SDS011;10137;49.406;19.484;2024-02-23T07:08:15;2.23;;;1.57;;
19951;SDS011;10137;49.406;19.484;2024-02-23T07:10:42;1.50;;;1.13;;
19951;SDS011;10137;49.406;19.484;2024-02-23T07:13:08;1.10;;;1.00;;
19951;SDS011;10137;49.406;19.484;2024-02-23T07:15:35;1.27;;;0.90;;
19951;SDS011;10137;49.406;19.484;2024-02-23T07:18:02;1.93;;;0.87;;
19951;SDS011;10137;49.406;19.484;2024-02-23T07:20:31;1.23;;;0.90;;
19951;SDS011;10137;49.406;19.484;2024-02-23T07:22:59;3.33;;;0.90;;
19951;SDS011;10137;49.406;19.484;2024-02-23T07:25:26;1.13;;;0.93;;
19951;SDS011;10137;49.406;19.484;2024-02-23T07:27:53;1.47;;;1.07;;
19951;SDS011;10137;49.406;19.484;2024-02-23T07:30:19;2.53;;;1.37;;
19951;SDS011;10137;49.406;19.484;2024-02-23T07:32:46;2.30;;;1.17;;
19951;SDS011;10137;49.406;19.484;2024-02-23T07:35:13;2.47;;;1.40;;
19951;SDS011;10137;49.406;19.484;2024-02-23T07:37:41;1.60;;;1.07;;
19951;SDS011;10137;49.406;19.484;2024-02-23T07:40:08;2.97;;;1.40;;
19951;SDS011;10137;49.406;19.484;2024-02-23T07:42:36;1.70;;;1.10;;
19951;SDS011;10137;49.406;19.484;2024-02-23T07:45:03;1.30;;;1.13;;
19951;SDS011;10137;49.406;19.484;2024-02-23T07:47:30;3.13;;;1.17;;
19951;SDS011;10137;49.406;19.484;2024-02-23T07:49:57;2.50;;;1.43;;
19951;SDS011;10137;49.406;19.484;2024-02-23T07:52:24;3.23;;;1.40;;
19951;SDS011;10137;49.406;19.484;2024-02-23T07:54:52;2.10;;;1.50;;
19951;SDS011;10137;49.406;19.484;2024-02-23T07:57:19;5.13;;;2.57;;
19951;SDS011;10137;49.406;19.484;2024-02-23T07:59:46;5.23;;;2.70;;
19951;SDS011;10137;49.406;19.484;2024-02-23T08:02:14;6.40;;;3.10;;
19951;SDS011;10137;49.406;19.484;2024-02-23T08:04:41;7.10;;;3.80;;
19951;SDS011;10137;49.406;19.484;2024-02-23T08:07:08;7.00;;;4.00;;
19951;SDS011;10137;49.406;19.484;2024-02-23T08:09:35;8.97;;;3.67;;
19951;SDS011;10137;49.406;19.484;2024-02-23T08:12:04;7.67;;;4.00;;
19951;SDS011;10137;49.406;19.484;2024-02-23T08:14:32;7.70;;;3.67;;
19951;SDS011;10137;49.406;19.484;2024-02-23T08:16:59;5.53;;;2.97;;
19951;SDS011;10137;49.406;19.484;2024-02-23T08:19:25;6.90;;;2.83;;
19951;SDS011;10137;49.406;19.484;2024-02-23T08:21:52;3.07;;;1.83;;
19951;SDS011;10137;49.406;19.484;2024-02-23T08:24:19;3.90;;;1.80;;
19951;SDS011;10137;49.406;19.484;2024-02-23T08:26:46;3.07;;;1.77;;
19951;SDS011;10137;49.406;19.484;2024-02-23T08:29:14;2.63;;;1.90;;
19951;SDS011;10137;49.406;19.484;2024-02-23T08:31:41;3.03;;;1.90;;
19951;SDS011;10137;49.406;19.484;2024-02-23T08:34:08;1.93;;;1.50;;
19951;SDS011;10137;49.406;19.484;2024-02-23T08:36:35;2.40;;;1.60;;
19951;SDS011;10137;49.406;19.484;2024-02-23T08:39:02;1.53;;;1.23;;
19951;SDS011;10137;49.406;19.484;2024-02-23T08:41:29;3.30;;;1.83;;
19951;SDS011;10137;49.406;19.484;2024-02-23T08:43:56;1.93;;;1.37;;
19951;SDS011;10137;49.406;19.484;2024-02-23T08:46:24;3.90;;;1.60;;
19951;SDS011;10137;49.406;19.484;2024-02-23T08:48:51;1.40;;;1.30;;
19951;SDS011;10137;49.406;19.484;2024-02-23T08:51:18;3.43;;;2.20;;
19951;SDS011;10137;49.406;19.484;2024-02-23T08:53:45;3.50;;;1.70;;
19951;SDS011;10137;49.406;19.484;2024-02-23T08:56:12;2.90;;;1.67;;
19951;SDS011;10137;49.406;19.484;2024-02-23T08:58:41;4.37;;;1.53;;
19951;SDS011;10137;49.406;19.484;2024-02-23T09:01:08;5.00;;;2.57;;
19951;SDS011;10137;49.406;19.484;2024-02-23T09:03:36;2.47;;;1.93;;
19951;SDS011;10137;49.406;19.484;2024-02-23T09:06:03;2.23;;;1.60;;
19951;SDS011;10137;49.406;19.484;2024-02-23T09:08:30;3.70;;;1.97;;
19951;SDS011;10137;49.406;19.484;2024-02-23T09:10:57;5.40;;;4.57;;
19951;SDS011;10137;49.406;19.484;2024-02-23T09:13:24;4.17;;;2.97;;
19951;SDS011;10137;49.406;19.484;2024-02-23T09:15:51;2.53;;;2.33;;
19951;SDS011;10137;49.406;19.484;2024-02-23T09:18:18;3.20;;;2.30;;
19951;SDS011;10137;49.406;19.484;2024-02-23T09:20:46;2.70;;;2.10;;
19951;SDS011;10137;49.406;19.484;2024-02-23T09:23:13;3.47;;;2.60;;
19951;SDS011;10137;49.406;19.484;2024-02-23T09:25:40;3.67;;;2.20;;
19951;SDS011;10137;49.406;19.484;2024-02-23T09:28:07;1.90;;;1.40;;
19951;SDS011;10137;49.406;19.484;2024-02-23T09:30:36;3.93;;;2.30;;
19951;SDS011;10137;49.406;19.484;2024-02-23T09:33:03;4.77;;;2.63;;
19951;SDS011;10137;49.406;19.484;2024-02-23T09:35:30;4.60;;;2.70;;
19951;SDS011;10137;49.406;19.484;2024-02-23T09:37:59;5.50;;;2.60;;
19951;SDS011;10137;49.406;19.484;2024-02-23T09:40:26;3.53;;;2.50;;
19951;SDS011;10137;49.406;19.484;2024-02-23T09:42:54;4.93;;;2.90;;
19951;SDS011;10137;49.406;19.484;2024-02-23T09:45:23;5.47;;;3.83;;
19951;SDS011;10137;49.406;19.484;2024-02-23T09:47:51;21.23;;;11.40;;
19951;SDS011;10137;49.406;19.484;2024-02-23T09:50:20;8.37;;;4.43;;
19951;SDS011;10137;49.406;19.484;2024-02-23T09:52:49;3.50;;;2.33;;
19951;SDS011;10137;49.406;19.484;2024-02-23T09:55:18;2.87;;;2.10;;
19951;SDS011;10137;49.406;19.484;2024-02-23T09:57:46;4.97;;;2.90;;
19951;SDS011;10137;49.406;19.484;2024-02-23T10:00:15;3.60;;;2.40;;
19951;SDS011;10137;49.406;19.484;2024-02-23T10:02:43;3.27;;;1.87;;
19951;SDS011;10137;49.406;19.484;2024-02-23T10:05:10;3.37;;;2.20;;
19951;SDS011;10137;49.406;19.484;2024-02-23T10:07:38;5.00;;;2.73;;
19951;SDS011;10137;49.406;19.484;2024-02-23T10:10:06;3.57;;;2.40;;
19951;SDS011;10137;49.406;19.484;2024-02-23T10:12:35;3.37;;;1.90;;
19951;SDS011;10137;49.406;19.484;2024-02-23T10:15:01;4.03;;;2.60;;
19951;SDS011;10137;49.406;19.484;2024-02-23T10:17:29;2.60;;;1.67;;
19951;SDS011;10137;49.406;19.484;2024-02-23T10:19:56;2.40;;;1.70;;
19951;SDS011;10137;49.406;19.484;2024-02-23T10:22:23;3.57;;;2.33;;
19951;SDS011;10137;49.406;19.484;2024-02-23T10:24:51;8.07;;;4.67;;
19951;SDS011;10137;49.406;19.484;2024-02-23T10:27:18;6.97;;;4.43;;
19951;SDS011;10137;49.406;19.484;2024-02-23T10:29:48;4.90;;;3.50;;
19951;SDS011;10137;49.406;19.484;2024-02-23T10:32:15;5.33;;;3.57;;
19951;SDS011;10137;49.406;19.484;2024-02-23T10:34:47;5.27;;;2.93;;
19951;SDS011;10137;49.406;19.484;2024-02-23T10:37:14;3.43;;;2.27;;
19951;SDS011;10137;49.406;19.484;2024-02-23T10:39:41;4.40;;;2.80;;
19951;SDS011;10137;49.406;19.484;2024-02-23T10:42:09;5.30;;;3.20;;
19951;SDS011;10137;49.406;19.484;2024-02-23T10:44:37;5.27;;;3.17;;
19951;SDS011;10137;49.406;19.484;2024-02-23T10:47:06;5.70;;;3.10;;
19951;SDS011;10137;49.406;19.484;2024-02-23T10:49:33;4.77;;;3.00;;
19951;SDS011;10137;49.406;19.484;2024-02-23T10:52:03;4.23;;;3.07;;
19951;SDS011;10137;49.406;19.484;2024-02-23T10:54:31;3.30;;;2.30;;
19951;SDS011;10137;49.406;19.484;2024-02-23T10:56:59;4.03;;;2.80;;
19951;SDS011;10137;49.406;19.484;2024-02-23T10:59:27;3.63;;;2.67;;
19951;SDS011;10137;49.406;19.484;2024-02-23T11:01:54;3.80;;;2.50;;
19951;SDS011;10137;49.406;19.484;2024-02-23T11:04:25;10.83;;;5.60;;
19951;SDS011;10137;49.406;19.484;2024-02-23T11:06:54;19.73;;;8.63;;
19951;SDS011;10137;49.406;19.484;2024-02-23T11:09:23;5.50;;;3.30;;
19951;SDS011;10137;49.406;19.484;2024-02-23T11:11:52;5.27;;;2.37;;
19951;SDS011;10137;49.406;19.484;2024-02-23T11:14:28;4.50;;;2.53;;
19951;SDS011;10137;49.406;19.484;2024-02-23T11:16:56;4.17;;;2.50;;
19951;SDS011;10137;49.406;19.484;2024-02-23T11:19:33;3.50;;;2.30;;
19951;SDS011;10137;49.406;19.484;2024-02-23T11:22:01;3.93;;;2.50;;
19951;SDS011;10137;49.406;19.484;2024-02-23T11:24:28;4.43;;;2.60;;
19951;SDS011;10137;49.406;19.484;2024-02-23T11:26:56;7.77;;;3.70;;
19951;SDS011;10137;49.406;19.484;2024-02-23T11:29:25;5.47;;;3.20;;
19951;SDS011;10137;49.406;19.484;2024-02-23T11:31:53;6.87;;;3.67;;
19951;SDS011;10137;49.406;19.484;2024-02-23T11:34:27;7.33;;;3.80;;
19951;SDS011;10137;49.406;19.484;2024-02-23T11:36:55;4.03;;;2.27;;
19951;SDS011;10137;49.406;19.484;2024-02-23T11:39:24;3.87;;;2.40;;
19951;SDS011;10137;49.406;19.484;2024-02-23T11:41:52;4.27;;;2.57;;
19951;SDS011;10137;49.406;19.484;2024-02-23T11:44:21;4.40;;;2.40;;
19951;SDS011;10137;49.406;19.484;2024-02-23T11:46:47;3.67;;;2.30;;
19951;SDS011;10137;49.406;19.484;2024-02-23T11:49:14;5.27;;;3.00;;
19951;SDS011;10137;49.406;19.484;2024-02-23T11:51:41;4.83;;;2.90;;
19951;SDS011;10137;49.406;19.484;2024-02-23T11:54:11;5.40;;;2.93;;
19951;SDS011;10137;49.406;19.484;2024-02-23T11:56:39;4.77;;;2.60;;
19951;SDS011;10137;49.406;19.484;2024-02-23T11:59:06;4.30;;;2.27;;
19951;SDS011;10137;49.406;19.484;2024-02-23T12:01:34;3.83;;;2.50;;
19951;SDS011;10137;49.406;19.484;2024-02-23T12:04:01;3.47;;;2.13;;
19951;SDS011;10137;49.406;19.484;2024-02-23T12:06:29;3.63;;;2.20;;
19951;SDS011;10137;49.406;19.484;2024-02-23T12:08:57;3.63;;;2.50;;
19951;SDS011;10137;49.406;19.484;2024-02-23T12:11:26;6.80;;;3.30;;
19951;SDS011;10137;49.406;19.484;2024-02-23T12:13:53;5.03;;;2.83;;
19951;SDS011;10137;49.406;19.484;2024-02-23T12:16:21;4.27;;;2.83;;
19951;SDS011;10137;49.406;19.484;2024-02-23T12:18:52;5.70;;;3.17;;
19951;SDS011;10137;49.406;19.484;2024-02-23T12:21:21;3.47;;;2.23;;
19951;SDS011;10137;49.406;19.484;2024-02-23T12:23:49;4.63;;;2.47;;
19951;SDS011;10137;49.406;19.484;2024-02-23T12:26:17;3.80;;;1.87;;
19951;SDS011;10137;49.406;19.484;2024-02-23T12:28:45;4.00;;;2.10;;
19951;SDS011;10137;49.406;19.484;2024-02-23T12:31:13;3.87;;;2.37;;
19951;SDS011;10137;49.406;19.484;2024-02-23T12:33:40;8.37;;;2.60;;
19951;SDS011;10137;49.406;19.484;2024-02-23T12:36:12;3.90;;;2.17;;
19951;SDS011;10137;49.406;19.484;2024-02-23T12:38:40;3.10;;;2.00;;
19951;SDS011;10137;49.406;19.484;2024-02-23T12:41:06;3.17;;;2.30;;
19951;SDS011;10137;49.406;19.484;2024-02-23T12:43:33;3.03;;;2.13;;
19951;SDS011;10137;49.406;19.484;2024-02-23T12:46:02;4.63;;;2.30;;
19951;SDS011;10137;49.406;19.484;2024-02-23T12:48:29;4.30;;;2.40;;
19951;SDS011;10137;49.406;19.484;2024-02-23T12:50:55;8.47;;;4.20;;
19951;SDS011;10137;49.406;19.484;2024-02-23T12:53:32;11.17;;;6.07;;
19951;SDS011;10137;49.406;19.484;2024-02-23T12:56:01;8.83;;;4.90;;
19951;SDS011;10137;49.406;19.484;2024-02-23T12:58:28;6.97;;;3.77;;
19951;SDS011;10137;49.406;19.484;2024-02-23T13:00:55;7.17;;;4.40;;
19951;SDS011;10137;49.406;19.484;2024-02-23T13:03:24;6.23;;;3.40;;
19951;SDS011;10137;49.406;19.484;2024-02-23T13:05:52;5.30;;;3.13;;
19951;SDS011;10137;49.406;19.484;2024-02-23T13:08:19;4.27;;;2.63;;
19951;SDS011;10137;49.406;19.484;2024-02-23T13:10:46;5.30;;;3.40;;
19951;SDS011;10137;49.406;19.484;2024-02-23T13:13:13;5.30;;;3.23;;
19951;SDS011;10137;49.406;19.484;2024-02-23T13:15:40;4.27;;;2.60;;
19951;SDS011;10137;49.406;19.484;2024-02-23T13:18:07;6.07;;;2.80;;
19951;SDS011;10137;49.406;19.484;2024-02-23T13:20:36;4.73;;;2.60;;
19951;SDS011;10137;49.406;19.484;2024-02-23T13:23:03;4.13;;;2.67;;
19951;SDS011;10137;49.406;19.484;2024-02-23T13:25:32;5.00;;;3.10;;
19951;SDS011;10137;49.406;19.484;2024-02-23T13:27:59;6.83;;;3.90;;
19951;SDS011;10137;49.406;19.484;2024-02-23T13:30:26;6.43;;;3.43;;
19951;SDS011;10137;49.406;19.484;2024-02-23T13:32:53;8.87;;;4.97;;
19951;SDS011;10137;49.406;19.484;2024-02-23T13:35:20;9.67;;;5.70;;
19951;SDS011;10137;49.406;19.484;2024-02-23T13:37:48;5.33;;;3.30;;
19951;SDS011;10137;49.406;19.484;2024-02-23T13:40:15;4.93;;;3.03;;
19951;SDS011;10137;49.406;19.484;2024-02-23T13:42:42;4.87;;;3.03;;
19951;SDS011;10137;49.406;19.484;2024-02-23T13:45:11;6.57;;;3.27;;
19951;SDS011;10137;49.406;19.484;2024-02-23T13:47:41;4.17;;;2.73;;
19951;SDS011;10137;49.406;19.484;2024-02-23T13:50:09;6.33;;;3.83;;
19951;SDS011;10137;49.406;19.484;2024-02-23T13:52:36;12.63;;;6.90;;
19951;SDS011;10137;49.406;19.484;2024-02-23T13:55:05;16.67;;;9.47;;
19951;SDS011;10137;49.406;19.484;2024-02-23T13:57:32;12.50;;;6.60;;
19951;SDS011;10137;49.406;19.484;2024-02-23T13:59:59;7.67;;;4.37;;
19951;SDS011;10137;49.406;19.484;2024-02-23T14:02:26;6.70;;;3.87;;
19951;SDS011;10137;49.406;19.484;2024-02-23T14:04:55;4.47;;;2.50;;
19951;SDS011;10137;49.406;19.484;2024-02-23T14:07:26;3.60;;;2.43;;
19951;SDS011;10137;49.406;19.484;2024-02-23T14:09:53;4.20;;;2.63;;
19951;SDS011;10137;49.406;19.484;2024-02-23T14:12:21;4.33;;;3.20;;
19951;SDS011;10137;49.406;19.484;2024-02-23T14:14:48;4.83;;;3.03;;
19951;SDS011;10137;49.406;19.484;2024-02-23T14:17:17;8.33;;;3.87;;
19951;SDS011;10137;49.406;19.484;2024-02-23T14:19:45;6.37;;;2.93;;
19951;SDS011;10137;49.406;19.484;2024-02-23T14:22:11;5.10;;;2.83;;
19951;SDS011;10137;49.406;19.484;2024-02-23T14:24:38;3.63;;;2.27;;
19951;SDS011;10137;49.406;19.484;2024-02-23T14:27:05;4.47;;;2.93;;
19951;SDS011;10137;49.406;19.484;2024-02-23T14:29:34;4.90;;;3.13;;
19951;SDS011;10137;49.406;19.484;2024-02-23T14:32:01;9.07;;;4.77;;
19951;SDS011;10137;49.406;19.484;2024-02-23T14:34:29;9.73;;;5.43;;